SYN001 LGAV-LTBA
Flight info
| Callsign | SYN001 |
|---|---|
| Flight time | N/A |
| Altitude | 37000 |
| Route | KRO UN604 INBET INBET1B/17L |
| Aircraft | BCS3/M-SBDE2E3GIRWXY/LB1 |
Departure
| Time | N/A |
|---|---|
| Airport | Athens Eleftherios Venizelos International Airport (LGAV) |
Arrival
| Time | 2026-05-08 19:01 |
|---|---|
| Airport | İstanbul Atatürk Airport (LTBA) |
| Time | Latitude | Longitude | Altitude | Speed | Heading |
|---|---|---|---|---|---|
| 2026-05-08 18:46 | 41.13805 | 28.76282 | 5024 ft | 212 kts | 171° |
| 2026-05-08 18:46 | 41.12420 | 28.76666 | 5021 ft | 212 kts | 171° |
| 2026-05-08 18:47 | 41.10970 | 28.77069 | 5024 ft | 212 kts | 171° |
| 2026-05-08 18:47 | 41.09523 | 28.77470 | 5025 ft | 212 kts | 171° |
| 2026-05-08 18:47 | 41.08078 | 28.77871 | 5023 ft | 211 kts | 171° |
| 2026-05-08 18:47 | 41.06646 | 28.78312 | 5012 ft | 213 kts | 161° |
| 2026-05-08 18:48 | 41.05515 | 28.79602 | 5027 ft | 223 kts | 124° |
| 2026-05-08 18:48 | 41.05196 | 28.81641 | 5038 ft | 236 kts | 87° |
| 2026-05-08 18:48 | 41.05855 | 28.83650 | 5043 ft | 244 kts | 53° |
| 2026-05-08 18:48 | 41.06967 | 28.85351 | 5037 ft | 245 kts | 51° |
| 2026-05-08 18:49 | 41.08101 | 28.87041 | 5021 ft | 245 kts | 50° |
| 2026-05-08 18:49 | 41.09218 | 28.88704 | 5025 ft | 244 kts | 50° |
| 2026-05-08 18:49 | 41.10346 | 28.90389 | 5024 ft | 245 kts | 50° |
| 2026-05-08 18:49 | 41.11477 | 28.92083 | 5015 ft | 244 kts | 50° |
| 2026-05-08 18:50 | 41.12601 | 28.93771 | 5024 ft | 245 kts | 50° |
| 2026-05-08 18:50 | 41.13717 | 28.95450 | 5018 ft | 244 kts | 51° |
| 2026-05-08 18:50 | 41.14844 | 28.97138 | 5021 ft | 244 kts | 50° |
| 2026-05-08 18:50 | 41.15968 | 28.98830 | 5020 ft | 244 kts | 50° |
| 2026-05-08 18:51 | 41.17089 | 29.00517 | 5018 ft | 243 kts | 50° |
| 2026-05-08 18:51 | 41.18219 | 29.02215 | 5008 ft | 245 kts | 51° |
| 2026-05-08 18:51 | 41.19338 | 29.03912 | 5012 ft | 242 kts | 53° |
| 2026-05-08 18:51 | 41.19952 | 29.05937 | 5023 ft | 235 kts | 88° |
| 2026-05-08 18:52 | 41.20200 | 29.08094 | 5024 ft | 236 kts | 84° |
| 2026-05-08 18:52 | 41.20334 | 29.10207 | 4661 ft | 235 kts | 90° |
| 2026-05-08 18:52 | 41.20416 | 29.12373 | 4342 ft | 233 kts | 90° |
| 2026-05-08 18:52 | 41.20393 | 29.14523 | 3971 ft | 230 kts | 106° |
| 2026-05-08 18:53 | 41.19617 | 29.16305 | 3610 ft | 223 kts | 142° |
| 2026-05-08 18:53 | 41.18243 | 29.17087 | 3250 ft | 216 kts | 178° |
| 2026-05-08 18:53 | 41.16770 | 29.16896 | 3030 ft | 212 kts | 190° |
| 2026-05-08 18:53 | 41.15301 | 29.16606 | 2987 ft | 215 kts | 191° |
| 2026-05-08 18:54 | 41.13826 | 29.16259 | 2972 ft | 215 kts | 201° |
| 2026-05-08 18:54 | 41.12691 | 29.15076 | 2996 ft | 208 kts | 231° |
| 2026-05-08 18:54 | 41.11859 | 29.13601 | 2986 ft | 191 kts | 235° |
| 2026-05-08 18:54 | 41.11131 | 29.12186 | 2984 ft | 181 kts | 236° |
| 2026-05-08 18:55 | 41.09745 | 29.09395 | 2999 ft | 181 kts | 237° |
| 2026-05-08 18:55 | 41.09098 | 29.08038 | 3560 ft | 173 kts | 237° |
| 2026-05-08 18:55 | 41.08475 | 29.06676 | 3672 ft | 176 kts | 238° |
| 2026-05-08 18:56 | 41.07837 | 29.05264 | 3443 ft | 179 kts | 237° |
| 2026-05-08 18:56 | 41.07209 | 29.03892 | 3385 ft | 167 kts | 237° |
| 2026-05-08 18:56 | 41.06618 | 29.02614 | 3399 ft | 160 kts | 237° |
| 2026-05-08 18:56 | 41.06035 | 29.01353 | 3363 ft | 162 kts | 237° |
| 2026-05-08 18:57 | 41.05441 | 29.00076 | 3132 ft | 164 kts | 237° |
| 2026-05-08 18:57 | 41.05044 | 28.99232 | 2975 ft | 162 kts | 237° |
| 2026-05-08 18:57 | 41.04243 | 28.97556 | 2674 ft | 159 kts | 237° |
| 2026-05-08 18:57 | 41.03648 | 28.96330 | 2434 ft | 156 kts | 238° |
| 2026-05-08 18:58 | 41.03070 | 28.95136 | 2210 ft | 154 kts | 239° |
| 2026-05-08 18:58 | 41.02521 | 28.93964 | 2007 ft | 144 kts | 241° |
| 2026-05-08 18:58 | 41.02030 | 28.92849 | 1796 ft | 136 kts | 241° |
| 2026-05-08 18:58 | 41.01544 | 28.91785 | 1614 ft | 135 kts | 240° |
| 2026-05-08 18:59 | 41.01054 | 28.90726 | 1421 ft | 135 kts | 240° |
| 2026-05-08 18:59 | 41.00565 | 28.89665 | 1236 ft | 135 kts | 240° |
| 2026-05-08 18:59 | 41.00074 | 28.88601 | 1044 ft | 135 kts | 240° |
| 2026-05-08 18:59 | 40.99578 | 28.87524 | 855 ft | 139 kts | 239° |
| 2026-05-08 19:00 | 40.99075 | 28.86436 | 656 ft | 138 kts | 238° |
| 2026-05-08 19:00 | 40.98584 | 28.85352 | 433 ft | 139 kts | 239° |
| 2026-05-08 19:00 | 40.98067 | 28.84249 | 247 ft | 140 kts | 238° |
| 2026-05-08 19:00 | 40.97567 | 28.83169 | 101 ft | 123 kts | 239° |
| 2026-05-08 19:01 | 40.97185 | 28.82338 | 103 ft | 95 kts | 237° |
| 2026-05-08 19:01 | 40.96998 | 28.81915 | 103 ft | 27 kts | 266° |
| 2026-05-08 19:01 | 40.96987 | 28.81669 | 103 ft | 19 kts | 266° |
| 2026-05-08 19:01 | 40.96990 | 28.81634 | 103 ft | 0 kts | 310° |
| 2026-05-08 19:02 | 40.96998 | 28.81631 | 101 ft | 3 kts | 347° |
| 2026-05-08 19:02 | 40.97055 | 28.81650 | 103 ft | 11 kts | 34° |
| 2026-05-08 19:02 | 40.97100 | 28.81732 | 103 ft | 12 kts | 58° |
| 2026-05-08 19:02 | 40.97147 | 28.81830 | 103 ft | 13 kts | 58° |
| 2026-05-08 19:03 | 40.97199 | 28.81938 | 103 ft | 15 kts | 58° |
| 2026-05-08 19:03 | 40.97255 | 28.82056 | 103 ft | 16 kts | 58° |
| 2026-05-08 19:03 | 40.97316 | 28.82184 | 103 ft | 17 kts | 58° |
| 2026-05-08 19:03 | 40.97381 | 28.82321 | 103 ft | 18 kts | 58° |
| 2026-05-08 19:04 | 40.97451 | 28.82468 | 102 ft | 19 kts | 58° |
| 2026-05-08 19:04 | 40.97520 | 28.82627 | 102 ft | 20 kts | 63° |
| 2026-05-08 19:04 | 40.97589 | 28.82758 | 102 ft | 12 kts | 20° |
| 2026-05-08 19:04 | 40.97668 | 28.82723 | 102 ft | 13 kts | 312° |
| 2026-05-08 19:05 | 40.97675 | 28.82608 | 102 ft | 13 kts | 265° |
| 2026-05-08 19:05 | 40.97681 | 28.82562 | 102 ft | 4 kts | 309° |
| 2026-05-08 19:05 | 40.97719 | 28.82541 | 102 ft | 0 kts | 346° |